createdAt,value
2022-08-30T00:01:37.878Z,19.25
2022-08-30T00:04:08.288Z,19.24
2022-08-30T00:06:41.740Z,19.16
2022-08-30T00:09:08.417Z,19.15
2022-08-30T00:11:41.754Z,19.17
2022-08-30T00:14:09.193Z,19.17
2022-08-30T00:16:42.707Z,19.16
2022-08-30T00:19:09.359Z,19.12
2022-08-30T00:21:49.714Z,19.08
2022-08-30T00:24:16.528Z,19.07
2022-08-30T00:26:49.709Z,19.06
2022-08-30T00:29:16.418Z,19.02
2022-08-30T00:31:49.715Z,19.03
2022-08-30T00:34:16.748Z,19.00
2022-08-30T00:36:51.718Z,18.99
2022-08-30T00:39:24.714Z,18.94
2022-08-30T00:41:51.567Z,18.93
2022-08-30T00:44:24.707Z,18.93
2022-08-30T00:46:53.788Z,18.90
2022-08-30T00:49:26.689Z,18.90
2022-08-30T00:51:53.754Z,18.91
2022-08-30T00:54:27.718Z,18.88
2022-08-30T00:56:55.528Z,18.79
2022-08-30T00:59:30.752Z,18.80
2022-08-30T01:01:57.572Z,18.78
2022-08-30T01:04:32.677Z,18.71
2022-08-30T01:07:00.493Z,18.69
2022-08-30T01:09:33.719Z,18.74
2022-08-30T01:12:07.703Z,18.72
2022-08-30T01:14:34.570Z,18.70
2022-08-30T01:17:09.683Z,18.70
2022-08-30T01:20:18.707Z,18.65
2022-08-30T01:22:57.702Z,18.65
2022-08-30T01:25:29.043Z,18.65
2022-08-30T01:28:07.724Z,18.58
2022-08-30T01:30:39.073Z,18.63
2022-08-30T01:33:13.769Z,18.63
2022-08-30T01:35:53.320Z,18.63
2022-08-30T01:38:29.695Z,18.58
2022-08-30T01:40:59.695Z,18.60
2022-08-30T01:43:34.067Z,18.55
2022-08-30T01:46:01.999Z,18.57
2022-08-30T01:48:35.844Z,18.52
2022-08-30T01:51:02.843Z,18.49
2022-08-30T01:53:36.719Z,18.50
2022-08-30T01:56:05.559Z,18.50
2022-08-30T01:58:38.712Z,18.47
2022-08-30T02:01:08.259Z,18.41
2022-08-30T02:03:36.493Z,18.43
2022-08-30T02:06:11.682Z,18.42
2022-08-30T02:08:46.670Z,18.34
2022-08-30T02:11:14.854Z,18.35
2022-08-30T02:13:50.707Z,18.33
2022-08-30T02:16:29.719Z,18.33
2022-08-30T02:19:02.860Z,18.30
2022-08-30T02:21:42.672Z,18.30
2022-08-30T02:24:22.691Z,18.24
2022-08-30T02:26:49.985Z,18.24
2022-08-30T02:29:16.855Z,18.20
2022-08-30T02:31:49.712Z,18.18
2022-08-30T02:34:16.916Z,18.16
2022-08-30T02:36:51.694Z,18.18
2022-08-30T02:39:18.466Z,18.15
2022-08-30T02:41:51.705Z,18.12
2022-08-30T02:44:24.695Z,18.10
2022-08-30T02:46:57.686Z,18.10
2022-08-30T02:49:33.030Z,18.08
2022-08-30T02:52:08.890Z,18.07
2022-08-30T02:54:35.554Z,18.07
2022-08-30T02:57:15.199Z,18.06
2022-08-30T02:59:48.048Z,18.08
2022-08-30T03:02:22.701Z,18.12
2022-08-30T03:04:50.146Z,18.12
2022-08-30T03:07:23.685Z,18.14
2022-08-30T03:09:51.062Z,18.09
2022-08-30T03:12:24.693Z,18.04
2022-08-30T03:14:51.398Z,18.06
2022-08-30T03:17:24.681Z,18.07
2022-08-30T03:19:57.680Z,18.03
2022-08-30T03:22:37.690Z,17.97
2022-08-30T03:25:05.160Z,17.91
2022-08-30T03:27:38.661Z,17.92
2022-08-30T03:30:07.933Z,17.93
2022-08-30T03:32:41.679Z,17.91
2022-08-30T03:35:10.427Z,17.95
2022-08-30T03:37:37.477Z,17.97
2022-08-30T03:40:13.730Z,17.96
2022-08-30T03:42:41.430Z,17.91
2022-08-30T03:45:17.708Z,17.92
2022-08-30T03:47:50.683Z,17.90
2022-08-30T03:50:24.658Z,17.87
2022-08-30T03:52:57.828Z,17.85
2022-08-30T03:55:31.683Z,17.86
2022-08-30T03:58:04.654Z,17.89
2022-08-30T04:00:38.714Z,17.85
2022-08-30T04:03:05.637Z,17.80
2022-08-30T04:05:38.670Z,17.80
2022-08-30T04:08:06.230Z,17.75
2022-08-30T04:10:39.686Z,17.73
2022-08-30T04:13:06.466Z,17.75
2022-08-30T04:15:39.665Z,17.76
2022-08-30T04:18:06.692Z,17.77
2022-08-30T04:20:46.669Z,17.75
2022-08-30T04:23:20.196Z,17.76
2022-08-30T04:25:53.654Z,17.69
2022-08-30T04:28:21.699Z,17.68
2022-08-30T04:30:55.680Z,17.68
2022-08-30T04:33:22.399Z,17.66
2022-08-30T04:35:56.688Z,17.66
2022-08-30T04:38:25.583Z,17.69
2022-08-30T04:40:55.618Z,17.71
2022-08-30T04:43:28.665Z,17.69
2022-08-30T04:45:55.617Z,17.69
2022-08-30T04:48:29.656Z,17.67
2022-08-30T04:50:56.364Z,17.68
2022-08-30T04:53:30.667Z,17.69
2022-08-30T04:55:57.497Z,17.68
2022-08-30T04:58:31.661Z,17.68
2022-08-30T05:00:58.546Z,17.71
2022-08-30T05:03:25.266Z,17.71
2022-08-30T05:05:58.693Z,17.71
2022-08-30T05:08:25.578Z,17.70
2022-08-30T05:10:59.697Z,17.72
2022-08-30T05:13:35.281Z,17.72
2022-08-30T05:16:10.699Z,17.74
2022-08-30T05:18:37.658Z,17.81
2022-08-30T05:21:22.661Z,17.83
2022-08-30T05:24:00.136Z,17.95
2022-08-30T05:26:38.720Z,17.92
2022-08-30T05:29:06.206Z,17.94
2022-08-30T05:31:42.882Z,17.96
2022-08-30T05:34:09.533Z,17.99
2022-08-30T05:36:44.664Z,18.00
2022-08-30T05:39:18.685Z,17.99
2022-08-30T05:41:48.900Z,17.98
2022-08-30T05:44:25.848Z,18.07
2022-08-30T05:46:52.843Z,18.10
2022-08-30T05:49:26.655Z,18.08
2022-08-30T05:51:53.381Z,17.95
2022-08-30T05:54:26.658Z,17.92
2022-08-30T05:56:53.422Z,17.94
2022-08-30T05:59:26.672Z,17.96
2022-08-30T06:01:57.799Z,17.89
2022-08-30T06:04:31.647Z,17.82
2022-08-30T06:07:04.662Z,17.95
2022-08-30T06:09:38.641Z,18.00
2022-08-30T06:12:05.709Z,17.99
2022-08-30T06:14:39.650Z,18.03
2022-08-30T06:17:07.071Z,18.05
2022-08-30T06:19:40.677Z,18.14
2022-08-30T06:22:14.149Z,18.18
2022-08-30T06:24:57.293Z,18.24
2022-08-30T06:27:24.979Z,18.38
2022-08-30T06:29:59.633Z,18.30
2022-08-30T06:32:32.665Z,18.38
2022-08-30T06:34:59.324Z,18.51
2022-08-30T06:37:32.669Z,18.56
2022-08-30T06:40:01.348Z,18.57
2022-08-30T06:42:38.626Z,18.64
2022-08-30T06:45:12.836Z,18.64
2022-08-30T06:47:40.611Z,18.64
2022-08-30T06:50:22.643Z,18.73
2022-08-30T06:52:49.699Z,18.82
2022-08-30T06:55:24.649Z,18.83
2022-08-30T06:57:51.539Z,18.84
2022-08-30T07:00:18.796Z,18.87
2022-08-30T07:02:52.645Z,18.91
2022-08-30T07:05:23.163Z,19.02
2022-08-30T07:07:59.805Z,19.03
2022-08-30T07:10:32.710Z,19.06
2022-08-30T07:13:05.627Z,19.14
2022-08-30T07:15:38.666Z,19.28
2022-08-30T07:18:24.390Z,19.33
2022-08-30T07:21:04.641Z,19.45
2022-08-30T07:23:44.633Z,19.44
2022-08-30T07:26:14.135Z,19.46
2022-08-30T07:28:49.626Z,19.54
2022-08-30T07:31:30.673Z,19.64
2022-08-30T07:34:04.656Z,19.70
2022-08-30T07:36:32.074Z,19.75
2022-08-30T07:39:05.638Z,19.80
2022-08-30T07:41:42.620Z,19.85
2022-08-30T07:44:15.646Z,19.92
2022-08-30T07:46:49.720Z,20.00
2022-08-30T07:49:22.644Z,20.06
2022-08-30T07:51:55.634Z,20.10
2022-08-30T07:54:22.609Z,20.14
2022-08-30T07:56:55.654Z,20.21
2022-08-30T07:59:23.350Z,20.27
2022-08-30T08:01:50.234Z,20.30
2022-08-30T08:04:32.638Z,20.36
2022-08-30T08:06:59.581Z,20.40
2022-08-30T08:09:32.678Z,20.44
2022-08-30T08:11:59.538Z,20.49
2022-08-30T08:14:26.377Z,20.57
2022-08-30T08:16:59.627Z,20.64
2022-08-30T08:19:26.391Z,20.67
2022-08-30T08:22:20.152Z,20.78
2022-08-30T08:24:49.317Z,20.82
2022-08-30T08:27:23.609Z,20.88
2022-08-30T08:29:56.624Z,20.92
2022-08-30T08:32:30.637Z,20.98
2022-08-30T08:35:03.619Z,21.00
2022-08-30T08:37:37.626Z,21.03
2022-08-30T08:40:12.701Z,21.11
2022-08-30T08:42:59.138Z,21.17
2022-08-30T08:45:56.495Z,21.22
2022-08-30T08:48:59.619Z,21.27
2022-08-30T08:51:56.626Z,21.36
2022-08-30T08:54:42.334Z,21.44
2022-08-30T08:57:18.468Z,21.47
2022-08-30T08:59:52.607Z,21.54
2022-08-30T09:02:34.418Z,21.58
2022-08-30T09:05:09.613Z,21.63
2022-08-30T09:07:40.869Z,21.71
2022-08-30T09:10:14.646Z,21.78
2022-08-30T09:12:41.599Z,21.82
2022-08-30T09:15:36.642Z,21.87
2022-08-30T09:18:06.551Z,21.94
2022-08-30T09:20:55.679Z,22.02
2022-08-30T09:23:30.088Z,22.14
2022-08-30T09:26:06.620Z,22.23
2022-08-30T09:28:50.499Z,22.32
2022-08-30T09:31:33.680Z,22.44
2022-08-30T09:34:01.789Z,22.48
2022-08-30T09:36:39.659Z,22.49
2022-08-30T09:39:15.260Z,22.57
2022-08-30T09:41:51.622Z,22.66
2022-08-30T09:44:21.380Z,22.74
2022-08-30T09:47:00.649Z,22.79
2022-08-30T09:49:41.585Z,22.86
2022-08-30T09:52:23.641Z,22.89
2022-08-30T09:55:26.617Z,22.92
2022-08-30T09:58:37.596Z,23.00
2022-08-30T10:01:27.849Z,23.09
2022-08-30T10:04:19.603Z,23.17
2022-08-30T10:07:06.609Z,23.29
2022-08-30T10:09:56.668Z,23.37
2022-08-30T10:12:59.596Z,23.55
2022-08-30T10:15:44.597Z,23.70
2022-08-30T10:18:14.125Z,23.76
2022-08-30T10:21:02.624Z,23.74
2022-08-30T10:23:42.709Z,23.89
2022-08-30T10:26:28.751Z,23.93
2022-08-30T10:29:11.406Z,24.01
2022-08-30T10:32:13.661Z,24.10
2022-08-30T10:35:06.978Z,24.22
2022-08-30T10:37:46.595Z,24.23
2022-08-30T10:40:58.608Z,24.38
2022-08-30T10:43:44.049Z,24.52
2022-08-30T10:46:34.639Z,24.65
2022-08-30T10:49:04.235Z,24.70
2022-08-30T10:51:49.628Z,24.80
2022-08-30T10:54:30.609Z,24.84
2022-08-30T10:57:04.705Z,24.94
2022-08-30T10:59:33.639Z,24.95
2022-08-30T11:02:43.637Z,25.26
2022-08-30T11:05:16.334Z,25.31
2022-08-30T11:08:44.642Z,25.39
2022-08-30T11:11:18.634Z,25.53
2022-08-30T11:13:47.711Z,25.51
2022-08-30T11:16:25.605Z,25.39
2022-08-30T11:19:44.004Z,25.80
2022-08-30T11:22:26.599Z,25.94
2022-08-30T11:25:02.214Z,26.12
2022-08-30T11:27:53.600Z,26.14
2022-08-30T11:30:50.620Z,26.24
2022-08-30T11:33:51.557Z,26.28
2022-08-30T11:36:37.573Z,26.34
2022-08-30T11:39:10.391Z,26.50
2022-08-30T11:41:53.576Z,26.47
2022-08-30T11:44:23.271Z,26.43
2022-08-30T11:47:01.599Z,26.34
2022-08-30T11:49:59.604Z,26.77
2022-08-30T11:52:44.591Z,27.09
2022-08-30T11:55:33.379Z,27.14
2022-08-30T11:58:18.655Z,27.13
2022-08-30T12:00:54.633Z,27.01
2022-08-30T12:03:33.285Z,26.86
2022-08-30T12:06:11.595Z,27.11
2022-08-30T12:08:48.586Z,27.16
2022-08-30T12:11:21.607Z,27.15
2022-08-30T12:13:48.192Z,27.26
2022-08-30T12:16:29.681Z,27.40
2022-08-30T12:19:16.630Z,27.36
2022-08-30T12:22:18.596Z,27.39
2022-08-30T12:24:51.785Z,27.27
2022-08-30T12:27:39.578Z,27.36
2022-08-30T12:30:09.882Z,27.45
2022-08-30T12:32:51.591Z,27.56
2022-08-30T12:35:28.607Z,27.61
2022-08-30T12:38:07.102Z,27.67
2022-08-30T12:40:43.647Z,27.54
2022-08-30T12:43:27.519Z,27.71
2022-08-30T12:46:18.645Z,27.70
2022-08-30T12:48:52.625Z,27.88
2022-08-30T12:51:41.454Z,27.91
2022-08-30T12:54:22.586Z,27.97
2022-08-30T12:57:19.239Z,27.99
2022-08-30T13:00:02.135Z,28.09
2022-08-30T13:02:59.590Z,28.17
2022-08-30T13:05:37.391Z,28.20
2022-08-30T13:08:32.609Z,28.25
2022-08-30T13:11:16.580Z,28.15
2022-08-30T13:13:52.155Z,28.16
2022-08-30T13:16:29.404Z,28.19
2022-08-30T13:19:34.807Z,28.14
2022-08-30T13:22:33.584Z,28.23
2022-08-30T13:25:00.619Z,28.24
2022-08-30T13:27:36.998Z,28.25
2022-08-30T13:30:20.597Z,28.29
2022-08-30T13:32:47.404Z,28.43
2022-08-30T13:35:20.592Z,28.42
2022-08-30T13:37:50.399Z,28.47
2022-08-30T13:40:27.700Z,28.55
2022-08-30T13:42:54.468Z,28.53
2022-08-30T13:45:43.924Z,28.54
2022-08-30T13:48:13.977Z,28.55
2022-08-30T13:50:47.581Z,28.56
2022-08-30T13:53:15.538Z,28.49
2022-08-30T13:55:44.003Z,28.50
2022-08-30T13:58:18.334Z,28.46
2022-08-30T14:00:48.624Z,28.44
2022-08-30T14:03:27.643Z,28.43
2022-08-30T14:06:21.923Z,28.42
2022-08-30T14:08:52.389Z,28.42
2022-08-30T14:11:22.957Z,28.44
2022-08-30T14:16:52.656Z,28.49
2022-08-30T14:19:26.600Z,28.40
2022-08-30T14:22:06.605Z,28.29
2022-08-30T14:24:41.583Z,28.15
2022-08-30T14:27:08.353Z,28.05
2022-08-30T14:29:42.575Z,27.94
2022-08-30T14:32:16.635Z,27.85
2022-08-30T14:34:43.360Z,27.76
2022-08-30T14:37:19.584Z,27.72
2022-08-30T14:39:46.601Z,27.60
2022-08-30T14:42:19.599Z,27.59
2022-08-30T14:44:56.496Z,27.49
2022-08-30T14:47:28.633Z,27.44
2022-08-30T14:50:05.579Z,27.40
2022-08-30T14:52:39.605Z,27.34
2022-08-30T14:55:09.760Z,27.32
2022-08-30T14:57:44.607Z,27.26
2022-08-30T15:00:12.678Z,27.22
2022-08-30T15:02:45.575Z,27.20
2022-08-30T15:05:18.593Z,27.19
2022-08-30T15:07:59.591Z,27.18
2022-08-30T15:10:26.968Z,27.12
2022-08-30T15:13:00.618Z,27.12
2022-08-30T15:15:31.584Z,27.07
2022-08-30T15:18:04.625Z,27.05
2022-08-30T15:20:31.395Z,27.06
2022-08-30T15:23:11.583Z,27.04
2022-08-30T15:25:44.042Z,27.05
2022-08-30T15:28:17.697Z,27.02
2022-08-30T15:30:44.561Z,26.99
2022-08-30T15:33:17.584Z,26.97
2022-08-30T15:35:44.380Z,26.97
2022-08-30T15:38:17.687Z,26.90
2022-08-30T15:40:46.481Z,26.89
2022-08-30T15:43:19.623Z,26.86
2022-08-30T15:45:46.336Z,26.90
2022-08-30T15:48:19.629Z,26.89
2022-08-30T15:50:46.310Z,26.88
2022-08-30T15:53:20.651Z,26.86
2022-08-30T15:55:47.435Z,26.85
2022-08-30T15:58:20.220Z,26.84
2022-08-30T16:00:53.603Z,26.81
2022-08-30T16:03:20.888Z,26.73
2022-08-30T16:05:54.595Z,26.66
2022-08-30T16:08:27.578Z,26.55
2022-08-30T16:10:54.487Z,26.55
2022-08-30T16:13:28.598Z,26.46
2022-08-30T16:16:00.745Z,26.47
2022-08-30T16:18:33.571Z,26.41
2022-08-30T16:21:35.578Z,26.32
2022-08-30T16:24:13.673Z,26.23
2022-08-30T16:26:50.613Z,26.16
2022-08-30T16:29:17.298Z,26.09
2022-08-30T16:31:51.664Z,26.02
2022-08-30T16:34:20.608Z,25.91
2022-08-30T16:36:53.583Z,25.83
2022-08-30T16:39:20.632Z,25.77
2022-08-30T16:41:54.577Z,25.76
2022-08-30T16:44:21.510Z,25.72
2022-08-30T16:46:58.708Z,25.65
2022-08-30T16:49:32.597Z,25.61
2022-08-30T16:51:59.462Z,25.53
2022-08-30T16:54:32.571Z,25.47
2022-08-30T16:57:06.671Z,25.38
2022-08-30T16:59:40.588Z,25.31
2022-08-30T17:02:07.412Z,25.24
2022-08-30T17:04:40.584Z,25.17
2022-08-30T17:07:16.567Z,25.10
2022-08-30T17:09:45.175Z,25.03
2022-08-30T17:12:18.572Z,24.95
2022-08-30T17:14:45.563Z,24.90
2022-08-30T17:17:22.012Z,24.85
2022-08-30T17:19:48.978Z,24.80
2022-08-30T17:22:28.589Z,24.75
2022-08-30T17:24:55.593Z,24.68
2022-08-30T17:27:30.561Z,24.64
2022-08-30T17:30:03.606Z,24.58
2022-08-30T17:32:30.543Z,24.53
2022-08-30T17:35:06.596Z,24.46
2022-08-30T17:37:33.361Z,24.39
2022-08-30T17:40:06.586Z,24.31
2022-08-30T17:42:48.594Z,24.26
2022-08-30T17:45:17.402Z,24.19
2022-08-30T17:47:51.633Z,24.13
2022-08-30T17:50:24.613Z,24.06
2022-08-30T17:53:02.576Z,24.00
2022-08-30T17:55:36.582Z,23.95
2022-08-30T17:58:10.552Z,23.88
2022-08-30T18:00:43.601Z,23.80
2022-08-30T18:03:16.620Z,23.76
2022-08-30T18:05:52.611Z,23.72
2022-08-30T18:08:19.465Z,23.65
2022-08-30T18:10:52.712Z,23.60
2022-08-30T18:13:19.412Z,23.57
2022-08-30T18:17:34.229Z,23.51
2022-08-30T18:21:36.688Z,23.41
2022-08-30T18:30:44.113Z,23.24
2022-08-30T18:33:17.590Z,23.20
2022-08-30T18:35:48.498Z,23.16
2022-08-30T18:38:23.751Z,23.12
2022-08-30T18:40:52.137Z,23.09
2022-08-30T18:43:30.911Z,23.05
2022-08-30T18:46:03.209Z,23.00
2022-08-30T18:48:36.576Z,22.97
2022-08-30T18:51:04.608Z,22.94
2022-08-30T18:53:32.325Z,22.89
2022-08-30T18:56:06.598Z,22.85
2022-08-30T18:58:34.038Z,22.81
2022-08-30T19:01:07.615Z,22.81
2022-08-30T19:03:39.603Z,22.80
2022-08-30T19:06:16.592Z,22.77
2022-08-30T19:08:51.584Z,22.76
2022-08-30T19:11:18.270Z,22.73
2022-08-30T19:13:52.573Z,22.70
2022-08-30T19:16:20.461Z,22.67
2022-08-30T19:18:53.569Z,22.62
2022-08-30T19:21:21.149Z,22.60
2022-08-30T19:24:02.973Z,22.54
2022-08-30T19:26:30.660Z,22.50
2022-08-30T19:29:07.580Z,22.46
2022-08-30T19:31:41.561Z,22.43
2022-08-30T19:34:08.641Z,22.40
2022-08-30T19:36:42.554Z,22.37
2022-08-30T19:39:12.736Z,22.34
2022-08-30T19:41:45.568Z,22.32
2022-08-30T19:44:12.413Z,22.25
2022-08-30T19:46:45.595Z,22.23
2022-08-30T19:49:13.133Z,22.22
2022-08-30T19:51:47.153Z,22.20
2022-08-30T19:54:14.194Z,22.14
2022-08-30T19:56:48.038Z,22.11
2022-08-30T19:59:22.610Z,22.04
2022-08-30T20:01:55.580Z,22.04
2022-08-30T20:04:29.584Z,22.01
2022-08-30T20:07:02.606Z,21.99
2022-08-30T20:09:29.606Z,21.97
2022-08-30T20:12:02.741Z,21.96
2022-08-30T20:14:32.167Z,21.92
2022-08-30T20:17:05.531Z,21.88
2022-08-30T20:19:45.630Z,21.84
2022-08-30T20:22:20.647Z,21.80
2022-08-30T20:25:00.587Z,21.72
2022-08-30T20:27:28.666Z,21.72
2022-08-30T20:30:02.576Z,21.69
2022-08-30T20:32:29.560Z,21.66
2022-08-30T20:35:03.559Z,21.63
2022-08-30T20:37:39.586Z,21.59
2022-08-30T20:40:15.942Z,21.60
2022-08-30T20:42:46.309Z,21.60
2022-08-30T20:45:22.558Z,21.56
2022-08-30T20:47:51.677Z,21.54
2022-08-30T20:50:26.702Z,21.51
2022-08-30T20:52:53.699Z,21.47
2022-08-30T20:55:20.740Z,21.46
2022-08-30T20:57:54.555Z,21.41
2022-08-30T21:00:21.296Z,21.43
2022-08-30T21:02:55.596Z,21.42
2022-08-30T21:05:22.427Z,21.39
2022-08-30T21:07:55.618Z,21.36
2022-08-30T21:10:23.518Z,21.30
2022-08-30T21:12:57.589Z,21.29
2022-08-30T21:15:37.256Z,21.27
2022-08-30T21:18:11.608Z,21.26
2022-08-30T21:20:38.592Z,21.19
2022-08-30T21:23:12.743Z,21.17
2022-08-30T21:25:54.556Z,21.07
2022-08-30T21:28:28.520Z,21.11
2022-08-30T21:31:14.530Z,21.11
2022-08-30T21:33:48.536Z,21.05
2022-08-30T21:36:41.555Z,21.05
2022-08-30T21:39:08.705Z,21.05
2022-08-30T21:41:43.525Z,21.00
2022-08-30T21:44:13.897Z,21.01
2022-08-30T21:46:48.561Z,21.02
2022-08-30T21:49:18.403Z,21.01
2022-08-30T21:51:54.534Z,21.00
2022-08-30T21:54:31.312Z,20.92
2022-08-30T21:57:00.642Z,20.92
2022-08-30T21:59:35.520Z,20.87
2022-08-30T22:02:09.716Z,20.86
2022-08-30T22:04:36.370Z,20.87
2022-08-30T22:07:16.531Z,20.87
2022-08-30T22:09:52.535Z,20.85
2022-08-30T22:12:25.932Z,20.79
2022-08-30T22:14:59.537Z,20.70
2022-08-30T22:17:26.228Z,20.72
2022-08-30T22:20:00.523Z,20.74
2022-08-30T22:22:34.528Z,20.71
2022-08-30T22:25:14.530Z,20.74
2022-08-30T22:27:48.550Z,20.67
2022-08-30T22:30:17.723Z,20.62
2022-08-30T22:32:52.707Z,20.65
2022-08-30T22:35:26.601Z,20.58
2022-08-30T22:38:00.602Z,20.59
2022-08-30T22:40:27.478Z,20.55
2022-08-30T22:43:01.545Z,20.56
2022-08-30T22:45:29.325Z,20.55
2022-08-30T22:48:02.540Z,20.55
2022-08-30T22:50:29.261Z,20.54
2022-08-30T22:53:02.535Z,20.52
2022-08-30T22:55:29.222Z,20.51
2022-08-30T22:58:03.601Z,20.49
2022-08-30T23:00:30.664Z,20.39
2022-08-30T23:03:03.524Z,20.38
2022-08-30T23:05:36.540Z,20.41
2022-08-30T23:08:13.523Z,20.41
2022-08-30T23:10:47.526Z,20.43
2022-08-30T23:13:20.566Z,20.37
2022-08-30T23:15:50.262Z,20.36
2022-08-30T23:18:23.516Z,20.36
2022-08-30T23:20:50.140Z,20.34
2022-08-30T23:23:48.536Z,20.33
2022-08-30T23:26:40.424Z,20.28
2022-08-30T23:29:32.515Z,20.27
2022-08-30T23:32:18.980Z,20.25
2022-08-30T23:35:11.516Z,20.23
2022-08-30T23:37:57.348Z,20.19
2022-08-30T23:40:49.547Z,20.21
2022-08-30T23:43:35.480Z,20.15
2022-08-30T23:46:27.530Z,20.12
2022-08-30T23:49:16.245Z,20.07
2022-08-30T23:52:08.576Z,20.03
2022-08-30T23:54:57.219Z,19.99
2022-08-30T23:57:50.575Z,19.93
